createdAt,value
2019-03-29T00:00:41.155Z,7.67
2019-03-29T00:03:12.720Z,7.47
2019-03-29T00:05:44.796Z,8.30
2019-03-29T00:08:16.436Z,8.63
2019-03-29T00:10:47.952Z,7.97
2019-03-29T00:13:19.577Z,7.50
2019-03-29T00:15:51.100Z,7.70
2019-03-29T00:18:22.689Z,8.18
2019-03-29T00:20:54.273Z,7.28
2019-03-29T00:23:25.855Z,7.67
2019-03-29T00:25:57.492Z,9.05
2019-03-29T00:28:29.821Z,7.60
2019-03-29T00:31:01.332Z,9.30
2019-03-29T00:33:32.935Z,7.87
2019-03-29T00:36:04.512Z,7.08
2019-03-29T00:38:36.017Z,7.35
2019-03-29T00:41:07.605Z,8.05
2019-03-29T00:43:39.159Z,7.35
2019-03-29T00:46:12.010Z,8.78
2019-03-29T00:48:43.639Z,7.95
2019-03-29T00:51:15.227Z,6.80
2019-03-29T00:53:46.761Z,8.23
2019-03-29T00:56:18.281Z,8.50
2019-03-29T00:58:49.792Z,6.33
2019-03-29T01:01:21.292Z,7.30
2019-03-29T01:03:52.984Z,7.92
2019-03-29T01:06:24.482Z,8.53
2019-03-29T01:08:56.018Z,8.00
2019-03-29T01:11:27.538Z,6.77
2019-03-29T01:14:00.120Z,6.40
2019-03-29T01:16:31.632Z,6.60
2019-03-29T01:19:03.341Z,6.50
2019-03-29T01:21:35.628Z,6.87
2019-03-29T01:24:07.180Z,6.75
2019-03-29T01:26:38.708Z,5.90
2019-03-29T01:29:10.219Z,6.60
2019-03-29T01:31:41.741Z,7.13
2019-03-29T01:34:13.253Z,5.85
2019-03-29T01:36:44.786Z,5.90
2019-03-29T01:39:16.989Z,5.85
2019-03-29T01:41:48.771Z,6.60
2019-03-29T01:44:20.274Z,7.93
2019-03-29T01:46:51.779Z,6.75
2019-03-29T01:49:23.300Z,5.95
2019-03-29T01:51:54.803Z,7.42
2019-03-29T01:54:26.387Z,7.28
2019-03-29T01:56:57.970Z,7.05
2019-03-29T01:59:29.627Z,5.67
2019-03-29T02:02:01.142Z,6.05
2019-03-29T02:04:32.720Z,7.05
2019-03-29T02:07:04.374Z,7.55
2019-03-29T02:09:35.892Z,6.55
2019-03-29T02:12:07.423Z,6.53
2019-03-29T02:14:38.984Z,5.25
2019-03-29T02:17:10.530Z,5.53
2019-03-29T02:19:42.029Z,5.53
2019-03-29T02:22:13.559Z,5.87
2019-03-29T02:24:45.041Z,6.53
2019-03-29T02:27:16.638Z,5.37
2019-03-29T02:29:48.142Z,5.30
2019-03-29T02:32:19.750Z,5.30
2019-03-29T02:34:52.311Z,4.75
2019-03-29T02:37:23.845Z,4.92
2019-03-29T02:39:55.349Z,5.45
2019-03-29T02:42:26.841Z,4.47
2019-03-29T02:44:58.375Z,4.25
2019-03-29T02:47:29.876Z,5.20
2019-03-29T02:50:01.383Z,4.72
2019-03-29T02:52:33.080Z,4.22
2019-03-29T02:55:07.080Z,4.08
2019-03-29T02:57:38.676Z,4.95
2019-03-29T03:00:11.088Z,4.45
2019-03-29T03:02:42.677Z,4.30
2019-03-29T03:05:14.193Z,3.70
2019-03-29T03:07:45.705Z,4.75
2019-03-29T03:10:17.206Z,4.42
2019-03-29T03:12:48.710Z,3.55
2019-03-29T03:15:20.232Z,4.00
2019-03-29T03:17:51.751Z,4.95
2019-03-29T03:20:23.258Z,4.50
2019-03-29T03:22:54.766Z,4.03
2019-03-29T03:25:26.411Z,3.98
2019-03-29T03:27:57.938Z,3.83
2019-03-29T03:30:29.478Z,5.00
2019-03-29T03:33:01.043Z,4.83
2019-03-29T03:35:32.601Z,5.03
2019-03-29T03:38:04.103Z,5.30
2019-03-29T03:40:35.721Z,3.98
2019-03-29T03:43:07.328Z,4.55
2019-03-29T03:45:38.835Z,4.35
2019-03-29T03:48:10.343Z,4.50
2019-03-29T03:50:42.665Z,5.47
2019-03-29T03:53:14.200Z,4.85
2019-03-29T03:55:45.720Z,4.15
2019-03-29T03:58:17.301Z,4.80
2019-03-29T04:00:54.658Z,4.65
2019-03-29T04:03:27.563Z,4.58
2019-03-29T04:05:59.142Z,4.62
2019-03-29T04:08:30.709Z,4.72
2019-03-29T04:11:02.350Z,3.70
2019-03-29T04:13:33.833Z,4.60
2019-03-29T04:16:05.442Z,4.20
2019-03-29T04:18:37.009Z,3.52
2019-03-29T04:21:08.591Z,3.83
2019-03-29T04:23:40.101Z,3.92
2019-03-29T04:26:11.618Z,4.83
2019-03-29T04:28:43.146Z,3.67
2019-03-29T04:31:14.651Z,3.33
2019-03-29T04:33:46.252Z,3.55
2019-03-29T04:36:18.820Z,4.60
2019-03-29T04:38:50.375Z,4.67
2019-03-29T04:41:21.886Z,3.52
2019-03-29T04:43:53.382Z,3.85
2019-03-29T04:46:24.887Z,3.72
2019-03-29T04:48:56.469Z,3.77
2019-03-29T04:51:27.977Z,4.20
2019-03-29T04:53:59.492Z,3.37
2019-03-29T04:56:31.021Z,3.47
2019-03-29T04:59:02.537Z,3.87
2019-03-29T05:01:34.058Z,3.55
2019-03-29T05:04:05.567Z,3.58
2019-03-29T05:06:37.152Z,4.05
2019-03-29T05:09:08.644Z,3.92
2019-03-29T05:11:40.164Z,3.75
2019-03-29T05:14:14.166Z,3.47
2019-03-29T05:16:45.780Z,4.10
2019-03-29T05:19:18.933Z,3.65
2019-03-29T05:21:50.691Z,3.30
2019-03-29T05:24:22.212Z,3.87
2019-03-29T05:26:53.733Z,3.67
2019-03-29T05:29:25.241Z,4.45
2019-03-29T05:31:56.741Z,3.40
2019-03-29T05:34:28.313Z,4.05
2019-03-29T05:36:59.877Z,3.75
2019-03-29T05:39:31.369Z,3.95
2019-03-29T05:42:02.960Z,3.92
2019-03-29T05:44:34.624Z,3.25
2019-03-29T05:47:06.195Z,4.00
2019-03-29T05:49:37.736Z,3.60
2019-03-29T05:52:09.308Z,4.33
2019-03-29T05:54:40.829Z,3.33
2019-03-29T05:57:12.339Z,3.22
2019-03-29T05:59:43.853Z,3.67
2019-03-29T06:02:15.402Z,3.85
2019-03-29T06:04:46.941Z,3.22
2019-03-29T06:07:18.434Z,4.30
2019-03-29T06:09:49.998Z,4.40
2019-03-29T06:12:21.585Z,3.52
2019-03-29T06:14:53.120Z,3.42
2019-03-29T06:17:24.631Z,3.80
2019-03-29T06:19:56.306Z,3.65
2019-03-29T06:22:27.795Z,3.90
2019-03-29T06:24:59.288Z,3.58
2019-03-29T06:27:30.812Z,3.37
2019-03-29T06:30:02.305Z,4.28
2019-03-29T06:32:33.892Z,4.22
2019-03-29T06:35:08.232Z,4.17
2019-03-29T06:37:39.825Z,5.03
2019-03-29T06:40:16.246Z,4.80
2019-03-29T06:42:47.893Z,4.00
2019-03-29T06:45:19.399Z,3.92
2019-03-29T06:47:50.892Z,4.78
2019-03-29T06:50:22.484Z,4.20
2019-03-29T06:52:54.015Z,5.17
2019-03-29T06:55:25.510Z,4.83
2019-03-29T06:57:57.020Z,5.47
2019-03-29T07:00:28.510Z,4.92
2019-03-29T07:03:00.114Z,4.97
2019-03-29T07:05:31.636Z,4.72
2019-03-29T07:08:03.232Z,4.75
2019-03-29T07:10:34.787Z,4.17
2019-03-29T07:13:06.391Z,5.30
2019-03-29T07:15:37.915Z,4.20
2019-03-29T07:18:09.398Z,4.45
2019-03-29T07:20:41.409Z,4.72
2019-03-29T07:23:12.892Z,5.50
2019-03-29T07:25:44.410Z,4.28
2019-03-29T07:28:15.922Z,4.75
2019-03-29T07:30:47.534Z,4.42
2019-03-29T07:33:19.973Z,4.47
2019-03-29T07:35:51.464Z,4.25
2019-03-29T07:38:23.045Z,4.30
2019-03-29T07:40:54.657Z,4.72
2019-03-29T07:43:27.261Z,5.45
2019-03-29T07:45:58.798Z,4.97
2019-03-29T07:48:30.297Z,4.58
2019-03-29T07:51:01.801Z,5.62
2019-03-29T07:53:33.315Z,5.17
2019-03-29T07:56:04.803Z,4.65
2019-03-29T07:58:36.301Z,5.72
2019-03-29T08:01:08.476Z,4.72
2019-03-29T08:03:40.307Z,5.22
2019-03-29T08:06:12.087Z,5.33
2019-03-29T08:08:43.810Z,4.58
2019-03-29T08:11:25.450Z,4.58
2019-03-29T08:13:48.602Z,4.87
2019-03-29T08:16:20.159Z,4.47
2019-03-29T08:18:51.791Z,4.78
2019-03-29T08:21:23.712Z,3.77
2019-03-29T08:23:55.297Z,4.15
2019-03-29T08:26:26.794Z,4.05
2019-03-29T08:28:58.443Z,3.35
2019-03-29T08:31:30.030Z,4.22
2019-03-29T08:34:01.554Z,3.92
2019-03-29T08:36:33.929Z,4.22
2019-03-29T08:39:10.164Z,3.22
2019-03-29T08:41:40.765Z,3.72
2019-03-29T08:44:12.338Z,3.83
2019-03-29T08:46:43.877Z,3.52
2019-03-29T08:49:17.019Z,4.95
2019-03-29T08:51:48.900Z,3.77
2019-03-29T08:54:20.527Z,4.22
2019-03-29T08:56:52.103Z,3.95
2019-03-29T08:59:23.692Z,4.35
2019-03-29T09:01:55.290Z,4.75
2019-03-29T09:04:26.800Z,6.15
2019-03-29T09:06:58.349Z,5.72
2019-03-29T09:09:29.874Z,5.85
2019-03-29T09:12:13.772Z,6.33
2019-03-29T09:14:35.016Z,4.37
2019-03-29T09:17:06.613Z,5.10
2019-03-29T09:19:38.205Z,5.62
2019-03-29T09:22:09.718Z,4.92
2019-03-29T09:24:41.238Z,4.90
2019-03-29T09:27:12.815Z,4.10
2019-03-29T09:29:44.348Z,4.85
2019-03-29T09:32:15.957Z,5.00
2019-03-29T09:34:47.438Z,5.75
2019-03-29T09:37:18.961Z,5.60
2019-03-29T09:39:50.572Z,6.75
2019-03-29T09:42:29.198Z,4.17
2019-03-29T09:44:55.312Z,5.33
2019-03-29T09:47:26.837Z,5.20
2019-03-29T09:49:58.489Z,6.15
2019-03-29T09:52:30.078Z,5.78
2019-03-29T09:55:03.344Z,5.95
2019-03-29T09:57:37.907Z,5.47
2019-03-29T10:00:19.265Z,7.20
2019-03-29T10:02:43.192Z,5.85
2019-03-29T10:05:14.720Z,6.17
2019-03-29T10:07:46.233Z,6.97
2019-03-29T10:10:17.757Z,6.62
2019-03-29T10:12:52.349Z,6.33
2019-03-29T10:15:24.025Z,6.40
2019-03-29T10:17:55.531Z,7.15
2019-03-29T10:20:27.050Z,7.28
2019-03-29T10:23:01.584Z,6.78
2019-03-29T10:25:34.252Z,7.67
2019-03-29T10:28:05.841Z,6.60
2019-03-29T10:30:40.710Z,6.53
2019-03-29T10:33:13.961Z,6.85
2019-03-29T10:35:51.902Z,6.87
2019-03-29T10:38:18.807Z,6.15
2019-03-29T10:40:53.002Z,6.20
2019-03-29T10:43:24.538Z,6.22
2019-03-29T10:45:57.043Z,6.08
2019-03-29T10:48:28.629Z,6.33
2019-03-29T10:51:01.782Z,7.03
2019-03-29T10:53:33.308Z,6.95
2019-03-29T10:56:04.901Z,6.60
2019-03-29T10:58:36.392Z,7.22
2019-03-29T11:01:07.921Z,6.10
2019-03-29T11:03:39.433Z,6.50
2019-03-29T11:06:11.037Z,6.80
2019-03-29T11:08:43.688Z,6.75
2019-03-29T11:11:15.374Z,6.92
2019-03-29T11:13:46.964Z,7.28
2019-03-29T11:16:18.483Z,7.10
2019-03-29T11:18:50.039Z,7.35
2019-03-29T11:21:21.664Z,6.75
2019-03-29T11:23:53.169Z,5.67
2019-03-29T11:26:24.770Z,7.40
2019-03-29T11:28:56.424Z,6.58
2019-03-29T11:31:30.884Z,6.10
2019-03-29T11:34:05.104Z,6.87
2019-03-29T11:36:36.671Z,6.62
2019-03-29T11:39:09.792Z,5.80
2019-03-29T11:41:41.326Z,6.45
2019-03-29T11:44:12.875Z,6.83
2019-03-29T11:46:44.631Z,6.42
2019-03-29T11:49:16.266Z,6.55
2019-03-29T11:51:47.775Z,6.05
2019-03-29T11:54:19.362Z,7.12
2019-03-29T11:56:51.960Z,6.47
2019-03-29T11:59:23.474Z,6.10
2019-03-29T12:01:55.085Z,5.67
2019-03-29T12:04:26.606Z,6.33
2019-03-29T12:06:58.123Z,5.67
2019-03-29T12:09:32.296Z,6.42
2019-03-29T12:12:03.819Z,6.37
2019-03-29T12:14:35.398Z,5.92
2019-03-29T12:17:06.906Z,6.17
2019-03-29T12:19:38.498Z,6.53
2019-03-29T12:22:10.011Z,7.30
2019-03-29T12:24:41.534Z,6.75
2019-03-29T12:27:16.242Z,6.55
2019-03-29T12:29:49.343Z,5.65
2019-03-29T12:32:20.879Z,6.87
2019-03-29T12:34:52.392Z,7.15
2019-03-29T12:37:23.952Z,6.42
2019-03-29T12:39:55.538Z,6.33
2019-03-29T12:42:27.456Z,8.03
2019-03-29T12:44:59.194Z,7.62
2019-03-29T12:47:33.519Z,7.10
2019-03-29T12:50:07.326Z,6.20
2019-03-29T12:52:42.809Z,7.55
2019-03-29T12:55:14.313Z,7.60
2019-03-29T12:57:47.497Z,5.85
2019-03-29T13:00:19.433Z,6.62
2019-03-29T13:02:50.969Z,7.25
2019-03-29T13:05:22.484Z,7.50
2019-03-29T13:07:53.995Z,6.97
2019-03-29T13:10:25.594Z,6.97
2019-03-29T13:13:00.411Z,7.62
2019-03-29T13:15:30.367Z,7.08
2019-03-29T13:18:01.949Z,5.70
2019-03-29T13:20:35.230Z,5.85
2019-03-29T13:23:06.760Z,6.28
2019-03-29T13:25:38.355Z,6.67
2019-03-29T13:28:11.897Z,7.10
2019-03-29T13:30:43.066Z,5.08
2019-03-29T13:33:14.638Z,6.62
2019-03-29T13:35:46.149Z,6.25
2019-03-29T13:38:20.470Z,6.42
2019-03-29T13:40:50.957Z,4.75
2019-03-29T13:43:22.477Z,5.08
2019-03-29T13:45:54.031Z,4.90
2019-03-29T13:48:25.628Z,5.50
2019-03-29T13:50:59.427Z,4.50
2019-03-29T13:53:31.010Z,5.45
2019-03-29T13:56:02.532Z,4.83
2019-03-29T13:58:34.096Z,5.62
2019-03-29T14:01:05.656Z,5.35
2019-03-29T14:03:37.172Z,4.45
2019-03-29T14:06:08.742Z,3.92
2019-03-29T14:08:41.339Z,3.80
2019-03-29T14:11:12.915Z,4.45
2019-03-29T14:13:44.569Z,3.62
2019-03-29T14:16:16.127Z,4.35
2019-03-29T14:18:47.627Z,4.28
2019-03-29T14:21:19.646Z,3.72
2019-03-29T14:23:51.237Z,4.37
2019-03-29T14:26:22.831Z,4.80
2019-03-29T14:28:54.350Z,4.22
2019-03-29T14:31:26.826Z,4.67
2019-03-29T14:33:59.394Z,4.47
2019-03-29T14:36:31.268Z,4.37
2019-03-29T14:39:02.842Z,4.70
2019-03-29T14:41:34.528Z,4.42
2019-03-29T14:44:06.042Z,3.90
2019-03-29T14:46:37.558Z,3.37
2019-03-29T14:49:09.068Z,3.62
2019-03-29T14:51:40.618Z,3.05
2019-03-29T14:54:12.106Z,4.05
2019-03-29T14:56:43.624Z,4.20
2019-03-29T14:59:15.113Z,3.33
2019-03-29T15:01:46.680Z,3.33
2019-03-29T15:04:19.248Z,3.77
2019-03-29T15:06:50.898Z,3.25
2019-03-29T15:09:22.419Z,4.00
2019-03-29T15:11:53.925Z,4.05
2019-03-29T15:14:25.439Z,3.87
2019-03-29T15:16:56.946Z,4.22
2019-03-29T15:19:28.523Z,4.00
2019-03-29T15:22:00.035Z,3.95
2019-03-29T15:24:31.626Z,3.72
2019-03-29T15:27:03.214Z,4.10
2019-03-29T15:29:34.807Z,4.20
2019-03-29T15:32:06.338Z,4.37
2019-03-29T15:34:37.822Z,4.10
2019-03-29T15:37:10.404Z,4.28
2019-03-29T15:39:42.059Z,3.60
2019-03-29T15:42:13.648Z,3.80
2019-03-29T15:44:45.153Z,4.75
2019-03-29T15:47:16.670Z,4.85
2019-03-29T15:49:55.759Z,3.95
2019-03-29T15:52:21.388Z,4.95
2019-03-29T15:54:52.965Z,4.67
2019-03-29T15:57:24.466Z,4.62
2019-03-29T15:59:55.970Z,5.05
2019-03-29T16:02:27.480Z,4.12
2019-03-29T16:04:59.146Z,4.37
2019-03-29T16:07:34.861Z,4.28
2019-03-29T16:10:06.221Z,4.70
2019-03-29T16:12:38.930Z,4.30
2019-03-29T16:15:10.524Z,4.75
2019-03-29T16:17:42.209Z,4.70
2019-03-29T16:20:13.793Z,4.15
2019-03-29T16:22:45.336Z,5.35
2019-03-29T16:25:17.000Z,5.35
2019-03-29T16:27:48.553Z,4.67
2019-03-29T16:30:20.115Z,5.33
2019-03-29T16:32:57.480Z,5.33
2019-03-29T16:35:34.733Z,5.15
2019-03-29T16:38:06.377Z,5.80
2019-03-29T16:40:39.336Z,5.55
2019-03-29T16:43:13.487Z,5.67
2019-03-29T16:45:48.309Z,5.58
2019-03-29T16:48:18.254Z,6.05
2019-03-29T16:51:07.737Z,5.78
2019-03-29T16:53:39.874Z,5.72
2019-03-29T16:56:15.301Z,5.12
2019-03-29T16:58:59.878Z,4.55
2019-03-29T17:01:31.912Z,4.47
2019-03-29T17:04:03.492Z,4.67
2019-03-29T17:06:38.029Z,4.12
2019-03-29T17:09:09.682Z,4.95
2019-03-29T17:11:41.253Z,5.37
2019-03-29T17:14:12.788Z,4.83
2019-03-29T17:16:44.539Z,5.60
2019-03-29T17:19:16.128Z,4.85
2019-03-29T17:21:47.627Z,4.92
2019-03-29T17:24:19.146Z,5.25
2019-03-29T17:26:50.857Z,5.33
2019-03-29T17:29:22.584Z,4.53
2019-03-29T17:31:54.169Z,4.83
2019-03-29T17:34:25.731Z,5.58
2019-03-29T17:36:57.370Z,5.50
2019-03-29T17:39:29.006Z,5.35
2019-03-29T17:42:05.201Z,6.58
2019-03-29T17:44:36.790Z,6.72
2019-03-29T17:47:08.412Z,7.40
2019-03-29T17:49:40.482Z,7.00
2019-03-29T17:52:12.200Z,7.78
2019-03-29T17:54:44.124Z,8.10
2019-03-29T17:57:15.848Z,7.17
2019-03-29T17:59:50.194Z,7.28
2019-03-29T18:02:23.862Z,7.70
2019-03-29T18:04:55.439Z,7.60
2019-03-29T18:07:26.932Z,7.20
2019-03-29T18:09:58.474Z,8.38
2019-03-29T18:12:30.037Z,7.62
2019-03-29T18:15:01.601Z,8.78
2019-03-29T18:17:34.372Z,7.35
2019-03-29T18:20:10.218Z,8.25
2019-03-29T18:22:41.771Z,8.20
2019-03-29T18:25:13.413Z,9.48
2019-03-29T18:27:44.926Z,9.50
2019-03-29T18:30:16.456Z,9.33
2019-03-29T18:32:48.050Z,8.20
2019-03-29T18:35:19.748Z,8.78
2019-03-29T18:37:51.354Z,9.38
2019-03-29T18:40:27.332Z,8.78
2019-03-29T18:42:58.834Z,9.13
2019-03-29T18:45:30.425Z,9.25
2019-03-29T18:48:01.952Z,9.13
2019-03-29T18:50:33.596Z,10.32
2019-03-29T18:53:05.284Z,10.82
2019-03-29T18:55:36.824Z,9.20
2019-03-29T18:58:08.390Z,8.88
2019-03-29T19:00:40.073Z,10.55
2019-03-29T19:03:12.307Z,9.80
2019-03-29T19:05:43.869Z,9.50
2019-03-29T19:08:15.469Z,8.88
2019-03-29T19:10:47.061Z,9.48
2019-03-29T19:13:18.636Z,10.30
2019-03-29T19:15:50.324Z,10.48
2019-03-29T19:18:21.920Z,8.93
2019-03-29T19:20:53.446Z,10.58
2019-03-29T19:23:24.954Z,10.25
2019-03-29T19:25:56.538Z,10.28
2019-03-29T19:28:28.049Z,8.50
2019-03-29T19:30:59.577Z,8.18
2019-03-29T19:33:31.092Z,9.08
2019-03-29T19:36:02.816Z,6.85
2019-03-29T19:38:34.328Z,7.55
2019-03-29T19:41:05.866Z,7.40
2019-03-29T19:43:37.384Z,6.28
2019-03-29T19:46:08.962Z,7.37
2019-03-29T19:48:40.542Z,7.70
2019-03-29T19:51:12.055Z,7.10
2019-03-29T19:53:43.607Z,8.85
2019-03-29T19:56:15.332Z,8.80
2019-03-29T19:58:46.824Z,8.58
2019-03-29T20:01:18.323Z,8.35
2019-03-29T20:03:49.851Z,8.08
2019-03-29T20:06:25.645Z,7.97
2019-03-29T20:08:55.887Z,8.98
2019-03-29T20:11:33.447Z,7.60
2019-03-29T20:14:04.936Z,7.08
2019-03-29T20:16:36.505Z,8.23
2019-03-29T20:19:08.064Z,7.22
2019-03-29T20:21:39.626Z,7.75
2019-03-29T20:24:12.017Z,7.55
2019-03-29T20:26:43.531Z,9.03
2019-03-29T20:29:15.059Z,8.43
2019-03-29T20:31:49.947Z,8.18
2019-03-29T20:34:20.043Z,7.12
2019-03-29T20:36:54.751Z,8.08
2019-03-29T20:39:26.293Z,8.43
2019-03-29T20:41:57.844Z,8.55
2019-03-29T20:44:29.360Z,7.62
2019-03-29T20:47:02.551Z,9.23
2019-03-29T20:49:34.752Z,7.90
2019-03-29T20:52:06.257Z,8.05
2019-03-29T20:54:37.911Z,8.20
2019-03-29T20:57:09.407Z,8.35
2019-03-29T20:59:41.063Z,9.03
2019-03-29T21:02:13.569Z,7.92
2019-03-29T21:04:45.217Z,7.53
2019-03-29T21:07:16.736Z,9.13
2019-03-29T21:09:48.336Z,7.15
2019-03-29T21:12:19.864Z,8.48
2019-03-29T21:14:53.068Z,8.53
2019-03-29T21:17:24.594Z,8.70
2019-03-29T21:19:56.110Z,8.30
2019-03-29T21:22:27.690Z,8.65
2019-03-29T21:24:59.281Z,8.38
2019-03-29T21:27:30.921Z,7.22
2019-03-29T21:30:02.422Z,8.25
2019-03-29T21:32:34.229Z,7.72
2019-03-29T21:35:08.389Z,9.25
2019-03-29T21:37:40.265Z,7.78
2019-03-29T21:40:11.920Z,8.03
2019-03-29T21:42:43.471Z,8.15
2019-03-29T21:45:27.997Z,7.00
2019-03-29T21:48:01.961Z,7.80
2019-03-29T21:50:22.675Z,7.75
2019-03-29T21:52:54.233Z,7.45
2019-03-29T21:55:25.796Z,6.10
2019-03-29T21:57:57.314Z,7.80
2019-03-29T22:00:28.832Z,7.50
2019-03-29T22:03:00.427Z,7.17
2019-03-29T22:05:31.983Z,6.28
2019-03-29T22:08:03.477Z,7.62
2019-03-29T22:10:35.069Z,7.37
2019-03-29T22:13:06.653Z,7.42
2019-03-29T22:15:38.268Z,7.80
2019-03-29T22:18:09.759Z,7.33
2019-03-29T22:20:41.274Z,7.25
2019-03-29T22:23:13.735Z,7.20
2019-03-29T22:25:45.321Z,7.05
2019-03-29T22:28:16.824Z,7.53
2019-03-29T22:30:48.400Z,7.12
2019-03-29T22:33:19.976Z,7.53
2019-03-29T22:35:51.496Z,8.38
2019-03-29T22:38:23.067Z,7.65
2019-03-29T22:40:54.637Z,8.10
2019-03-29T22:43:26.161Z,6.55
2019-03-29T22:45:57.751Z,8.05
2019-03-29T22:48:29.267Z,8.18
2019-03-29T22:51:00.796Z,8.05
2019-03-29T22:53:32.413Z,7.95
2019-03-29T22:56:04.998Z,9.33
2019-03-29T22:58:36.492Z,9.10
2019-03-29T23:01:08.183Z,8.00
2019-03-29T23:03:41.527Z,9.68
2019-03-29T23:06:13.128Z,8.20
2019-03-29T23:08:44.622Z,8.68
2019-03-29T23:11:16.149Z,7.80
2019-03-29T23:13:47.663Z,6.65
2019-03-29T23:16:19.252Z,7.53
2019-03-29T23:18:50.757Z,7.70
2019-03-29T23:21:22.273Z,7.70
2019-03-29T23:23:54.767Z,6.83
2019-03-29T23:26:26.291Z,6.80
2019-03-29T23:28:57.857Z,5.55
2019-03-29T23:31:29.446Z,6.10
2019-03-29T23:34:01.018Z,5.72
2019-03-29T23:36:32.597Z,6.12
2019-03-29T23:39:04.454Z,5.70
2019-03-29T23:41:36.637Z,5.10
2019-03-29T23:44:08.214Z,5.20
2019-03-29T23:46:39.703Z,5.50
2019-03-29T23:49:20.991Z,5.75
2019-03-29T23:51:44.499Z,6.10
2019-03-29T23:54:16.064Z,6.47
2019-03-29T23:56:47.635Z,5.87
2019-03-29T23:59:19.156Z,6.45
